»·PEaware :: WAT380 KSLC-KRNO

WAT380 :: KSLC-KRNO

FLIGHT INFORMATION

Flight Status: Arrived
Operator:
Walker Air Transport
More flights by this operator :: More flights under this callsign
Pilot: Spencer M. (27733)
Aircraft: CESSNA 550 CITATION 2/S2/BRAVO
(C550)
More flights by this aircraft type
Origin: KSLC Salt Lake City Intl
United States
Destination: KRNO Reno/Tahoe Intl
United States
More flights between these airports :: More routes between these airports
Route: DEZRT1 BAM MYBAD MYBAD2
File this flight plan on PilotEdge
Remarks:
Altitude:
(Current/Filed)
34,000ft
Speed:
(Current/Filed)
330kts
Departed: 29-Oct-20 07:57 AM
Arrived: 29-Oct-20 09:24 AM
Distance/Time
Traveled:
366nm/1:27
Distance/Time
To Go:
Arrived

Flight Plot

Page will automatically refresh every two minutes.

Flight plan parsing failed; only flown route is shown


Map Options




Map Legend


Flown Route
Filed Route
Departure Airport
Arrival Airport
Navaid (VOR, NDB)
Fix

Horizontal Profiles

Position Reports

Time Latitude Longitude Heading Altitude Ground
Speed
29-Oct-20 07:40 40.775671 -111.959392 357 4232ft 0kts
29-Oct-20 07:41 40.775671 -111.959392 357 4232ft 0kts
29-Oct-20 07:42 40.775671 -111.959392 357 4232ft 0kts
29-Oct-20 07:43 40.775671 -111.959392 357 4232ft 0kts
29-Oct-20 07:44 40.775671 -111.959392 357 4232ft 0kts
29-Oct-20 07:45 40.775671 -111.959392 357 4232ft 0kts
29-Oct-20 07:46 40.775671 -111.959392 357 4232ft 0kts
29-Oct-20 07:47 40.775743 -111.959401 354 4232ft 3kts
29-Oct-20 07:48 40.777221 -111.960297 257 4232ft 12kts
29-Oct-20 07:49 40.779725 -111.960008 359 4232ft 19kts
29-Oct-20 07:50 40.785626 -111.960006 1 4232ft 20kts
29-Oct-20 07:51 40.790196 -111.960031 1 4232ft 15kts
29-Oct-20 07:52 40.794591 -111.960012 359 4232ft 18kts
29-Oct-20 07:53 40.798861 -111.960481 269 4232ft 0kts
29-Oct-20 07:54 40.798861 -111.960481 269 4232ft 0kts
29-Oct-20 07:55 40.798862 -111.960723 270 4232ft 5kts
29-Oct-20 07:56 40.791017 -111.962070 179 4232ft 105kts
29-Oct-20 07:57 40.750233 -111.978046 235 6091ft 192kts
29-Oct-20 07:58 40.770364 -112.046199 306 8188ft 226kts
29-Oct-20 07:59 40.807577 -112.112215 305 10192ft 222kts
29-Oct-20 08:01 40.842651 -112.177392 306 12166ft 217kts
29-Oct-20 08:02 40.879113 -112.242148 307 14071ft 220kts
29-Oct-20 08:03 40.916224 -112.305898 306 15962ft 217kts
29-Oct-20 08:04 40.900583 -112.377640 239 17658ft 227kts
29-Oct-20 08:05 40.870819 -112.452919 262 19166ft 237kts
29-Oct-20 08:06 40.864796 -112.540329 265 20660ft 242kts
29-Oct-20 08:07 40.858459 -112.629219 263 22100ft 247kts
29-Oct-20 08:08 40.850945 -112.720498 263 23507ft 252kts
29-Oct-20 08:09 40.843368 -112.812864 263 24912ft 253kts
29-Oct-20 08:10 40.841907 -112.904949 269 26309ft 250kts
29-Oct-20 08:11 40.842249 -112.995416 269 27706ft 242kts
29-Oct-20 08:12 40.842474 -113.082297 269 28953ft 236kts
29-Oct-20 08:13 40.842629 -113.169642 270 29954ft 239kts
29-Oct-20 08:14 40.842721 -113.257174 270 30950ft 237kts
29-Oct-20 08:14 40.842745 -113.329034 270 31773ft 234kts
29-Oct-20 08:16 40.842708 -113.427640 270 32872ft 228kts
29-Oct-20 08:16 40.842629 -113.497550 270 33535ft 228kts
29-Oct-20 08:18 40.842453 -113.596288 271 34041ft 243kts
29-Oct-20 08:19 40.842205 -113.690348 270 34002ft 267kts
29-Oct-20 08:19 40.841912 -113.774541 270 34001ft 283kts
29-Oct-20 08:21 40.841317 -113.900031 269 34001ft 301kts
29-Oct-20 08:21 40.840738 -113.993712 269 34000ft 310kts
29-Oct-20 08:23 40.839778 -114.128772 269 34000ft 320kts
29-Oct-20 08:23 40.838975 -114.227726 269 34000ft 325kts
29-Oct-20 08:24 40.837889 -114.347453 269 34000ft 327kts
29-Oct-20 08:25 40.836675 -114.467356 269 34000ft 328kts
29-Oct-20 08:26 40.835335 -114.588013 269 34000ft 329kts
29-Oct-20 08:27 40.833862 -114.708810 269 33999ft 329kts
29-Oct-20 08:28 40.824587 -114.829197 261 33999ft 330kts
29-Oct-20 08:29 40.810986 -114.948652 261 33999ft 330kts
29-Oct-20 08:30 40.797311 -115.068387 261 34006ft 330kts
29-Oct-20 08:31 40.783489 -115.188373 261 34007ft 331kts
29-Oct-20 08:32 40.769562 -115.308135 261 34009ft 331kts
29-Oct-20 08:33 40.755457 -115.428302 261 34009ft 332kts
29-Oct-20 08:34 40.741197 -115.548666 261 34010ft 332kts
29-Oct-20 08:35 40.726791 -115.669144 260 34008ft 333kts
29-Oct-20 08:36 40.712267 -115.789532 260 34008ft 333kts
29-Oct-20 08:37 40.697600 -115.910002 260 34009ft 333kts
29-Oct-20 08:38 40.682825 -116.030267 260 34001ft 334kts
29-Oct-20 08:39 40.667863 -116.150964 260 33993ft 334kts
29-Oct-20 08:40 40.652741 -116.271877 260 33991ft 335kts
29-Oct-20 08:41 40.637525 -116.392499 260 33991ft 335kts
29-Oct-20 08:42 40.622118 -116.513526 260 33995ft 335kts
29-Oct-20 08:43 40.606664 -116.633944 260 34001ft 334kts
29-Oct-20 08:44 40.591033 -116.754668 259 33999ft 334kts
29-Oct-20 08:45 40.575336 -116.874886 259 33999ft 334kts
29-Oct-20 08:46 40.560144 -116.995714 261 33996ft 334kts
29-Oct-20 08:47 40.545964 -117.116155 261 33991ft 334kts
29-Oct-20 08:48 40.531424 -117.237034 261 33689ft 338kts
29-Oct-20 08:49 40.516500 -117.359652 261 32346ft 341kts
29-Oct-20 08:50 40.501404 -117.482533 261 30849ft 340kts
29-Oct-20 08:51 40.486353 -117.603937 261 29353ft 336kts
29-Oct-20 08:52 40.471305 -117.724244 260 27851ft 332kts
29-Oct-20 08:53 40.456322 -117.842997 261 26350ft 328kts
29-Oct-20 08:54 40.441400 -117.960264 261 24853ft 325kts
29-Oct-20 08:55 40.426625 -118.075333 261 23974ft 309kts
29-Oct-20 08:56 40.412421 -118.185177 261 23972ft 302kts
29-Oct-20 08:57 40.398348 -118.293202 261 23972ft 299kts
29-Oct-20 08:58 40.376902 -118.397276 241 23973ft 299kts
29-Oct-20 08:59 40.334058 -118.490166 240 23972ft 297kts
29-Oct-20 09:00 40.290554 -118.583873 240 22840ft 299kts
29-Oct-20 09:01 40.250051 -118.675601 245 21340ft 286kts
29-Oct-20 09:02 40.214818 -118.767479 245 19842ft 280kts
29-Oct-20 09:03 40.179650 -118.857163 245 18437ft 273kts
29-Oct-20 09:04 40.145546 -118.943694 245 17347ft 265kts
29-Oct-20 09:05 40.111951 -119.028717 244 16352ft 262kts
29-Oct-20 09:06 40.078524 -119.113066 244 15359ft 261kts
29-Oct-20 09:07 40.045338 -119.196562 244 14366ft 257kts
29-Oct-20 09:08 40.012740 -119.278357 243 13314ft 252kts
29-Oct-20 09:09 39.981543 -119.356393 243 12998ft 229kts
29-Oct-20 09:10 39.953364 -119.426743 243 12673ft 221kts
29-Oct-20 09:11 39.922591 -119.495965 236 11919ft 215kts
29-Oct-20 09:12 39.889766 -119.558972 236 11314ft 205kts
29-Oct-20 09:13 39.858294 -119.619474 231 10601ft 204kts
29-Oct-20 09:14 39.820671 -119.678008 228 9214ft 216kts
29-Oct-20 09:15 39.784148 -119.735859 229 7976ft 187kts
29-Oct-20 09:16 39.748076 -119.765801 188 7529ft 165kts
29-Oct-20 09:17 39.704029 -119.769992 178 7573ft 152kts
29-Oct-20 09:18 39.660166 -119.768532 175 7447ft 156kts
29-Oct-20 09:19 39.615204 -119.769382 182 6643ft 156kts
29-Oct-20 09:20 39.577359 -119.768965 180 5818ft 113kts
29-Oct-20 09:21 39.546044 -119.769306 179 5217ft 112kts
29-Oct-20 09:22 39.517265 -119.769221 179 4630ft 102kts
29-Oct-20 09:23 39.497740 -119.769376 197 4420ft 13kts
29-Oct-20 09:24 39.498254 -119.771528 359 4420ft 12kts
29-Oct-20 09:25 39.502751 -119.771505 0 4420ft 15kts
29-Oct-20 09:26 39.505907 -119.771981 272 4420ft 7kts
29-Oct-20 09:27 39.505327 -119.772803 216 4420ft 0kts
29-Oct-20 09:28 39.505327 -119.772803 216 4420ft 0kts

Navigation Log

Ident Type
Flight plan parsing failed, navigation log unavailable